createdAt,value
2023-01-29T00:02:21.601Z,-0.87
2023-01-29T00:05:28.114Z,-0.88
2023-01-29T00:08:31.142Z,-0.85
2023-01-29T00:11:33.933Z,-0.83
2023-01-29T00:14:36.328Z,-0.91
2023-01-29T00:17:39.029Z,-0.93
2023-01-29T00:20:43.922Z,-0.82
2023-01-29T00:23:47.209Z,-0.73
2023-01-29T00:26:50.384Z,-0.74
2023-01-29T00:30:09.281Z,-0.77
2023-01-29T00:33:13.519Z,-0.80
2023-01-29T00:36:18.224Z,-0.84
2023-01-29T00:39:31.352Z,-0.94
2023-01-29T00:42:54.996Z,-1.04
2023-01-29T00:45:57.526Z,-1.14
2023-01-29T00:49:03.281Z,-1.24
2023-01-29T00:52:24.055Z,-1.25
2023-01-29T00:55:26.707Z,-1.36
2023-01-29T00:58:34.244Z,-1.48
2023-01-29T01:01:55.835Z,-1.55
2023-01-29T01:04:58.317Z,-1.63
2023-01-29T01:08:00.992Z,-1.65
2023-01-29T01:11:06.519Z,-1.62
2023-01-29T01:14:09.696Z,-1.66
2023-01-29T01:17:12.120Z,-1.72
2023-01-29T01:20:15.364Z,-1.83
2023-01-29T01:23:19.470Z,-1.95
2023-01-29T01:26:23.536Z,-1.87
2023-01-29T01:29:25.887Z,-1.90
2023-01-29T01:32:28.813Z,-1.88
2023-01-29T01:35:31.344Z,-1.95
2023-01-29T01:38:34.078Z,-1.93
2023-01-29T01:41:36.611Z,-1.93
2023-01-29T01:44:54.833Z,-1.90
2023-01-29T01:48:19.745Z,-1.87
2023-01-29T01:51:26.353Z,-1.93
2023-01-29T01:54:32.399Z,-1.84
2023-01-29T01:57:36.372Z,-1.78
2023-01-29T02:00:39.824Z,-1.81
2023-01-29T02:04:09.327Z,-1.72
2023-01-29T02:07:34.080Z,-1.77
2023-01-29T02:10:42.710Z,-1.80
2023-01-29T02:13:45.872Z,-1.74
2023-01-29T02:16:48.380Z,-1.65
2023-01-29T02:20:10.583Z,-1.71
2023-01-29T02:23:44.406Z,-1.70
2023-01-29T02:27:14.271Z,-1.68
2023-01-29T02:30:28.629Z,-1.68
2023-01-29T02:33:46.408Z,-1.65
2023-01-29T02:36:56.060Z,-1.65
2023-01-29T02:40:29.725Z,-1.69
2023-01-29T02:43:45.585Z,-1.80
2023-01-29T02:47:06.723Z,-1.78
2023-01-29T02:50:09.070Z,-1.81
2023-01-29T02:53:19.784Z,-1.83
2023-01-29T02:56:29.375Z,-1.87
2023-01-29T02:59:40.928Z,-1.78
2023-01-29T03:02:49.141Z,-1.75
2023-01-29T03:06:06.437Z,-1.66
2023-01-29T03:09:22.499Z,-1.54
2023-01-29T03:12:34.040Z,-1.39
2023-01-29T03:15:47.497Z,-1.22
2023-01-29T03:19:05.400Z,-1.03
2023-01-29T03:22:10.124Z,-0.82
2023-01-29T03:25:34.644Z,-0.72
2023-01-29T03:28:58.308Z,-0.59
2023-01-29T03:32:04.435Z,-0.53
2023-01-29T03:35:09.960Z,-0.40
2023-01-29T03:38:12.823Z,-0.38
2023-01-29T03:41:25.285Z,-0.28
2023-01-29T03:44:31.167Z,-0.23
2023-01-29T03:47:44.116Z,-0.13
2023-01-29T03:51:02.439Z,-0.11
2023-01-29T03:54:18.443Z,-0.10
2023-01-29T03:57:56.190Z,-0.07
2023-01-29T04:01:09.217Z,-0.02
2023-01-29T04:04:18.960Z,-0.03
2023-01-29T04:07:24.632Z,-0.01
2023-01-29T04:10:32.280Z,-0.03
2023-01-29T04:13:36.290Z,-0.03
2023-01-29T04:16:44.858Z,-0.01
2023-01-29T04:19:48.525Z,-0.02
2023-01-29T04:22:52.456Z,0.00
2023-01-29T04:26:16.792Z,0.00
2023-01-29T04:29:43.829Z,0.06
2023-01-29T04:33:29.397Z,0.08
2023-01-29T04:37:19.869Z,0.05
2023-01-29T04:40:37.716Z,0.08
2023-01-29T04:43:44.403Z,0.08
2023-01-29T04:46:52.837Z,0.11
2023-01-29T04:50:08.751Z,0.06
2023-01-29T04:53:15.604Z,0.07
2023-01-29T04:56:29.694Z,0.07
2023-01-29T04:59:57.545Z,0.09
2023-01-29T05:03:01.854Z,0.07
2023-01-29T05:06:05.790Z,0.12
2023-01-29T05:09:09.956Z,0.13
2023-01-29T05:12:16.414Z,0.15
2023-01-29T05:15:29.371Z,0.14
2023-01-29T05:18:32.666Z,0.13
2023-01-29T05:21:35.395Z,0.16
2023-01-29T05:24:38.034Z,0.13
2023-01-29T05:27:59.850Z,0.11
2023-01-29T05:31:02.669Z,0.10
2023-01-29T05:34:05.459Z,0.10
2023-01-29T05:37:09.388Z,0.10
2023-01-29T05:40:12.450Z,0.11
2023-01-29T05:43:22.846Z,0.14
2023-01-29T05:46:25.640Z,0.13
2023-01-29T05:49:28.322Z,0.13
2023-01-29T05:52:31.038Z,0.12
2023-01-29T05:55:33.495Z,0.13
2023-01-29T05:58:36.321Z,0.16
2023-01-29T06:01:41.659Z,0.15
2023-01-29T06:04:44.383Z,0.15
2023-01-29T06:07:47.106Z,0.18
2023-01-29T06:10:49.788Z,0.17
2023-01-29T06:13:52.277Z,0.16
2023-01-29T06:16:54.961Z,0.19
2023-01-29T06:19:57.296Z,0.21
2023-01-29T06:23:00.139Z,0.20
2023-01-29T06:26:05.937Z,0.22
2023-01-29T06:29:11.487Z,0.23
2023-01-29T06:32:13.943Z,0.23
2023-01-29T06:35:16.846Z,0.20
2023-01-29T06:38:19.188Z,0.24
2023-01-29T06:41:25.397Z,0.24
2023-01-29T06:44:27.956Z,0.27
2023-01-29T06:47:30.696Z,0.27
2023-01-29T06:50:33.103Z,0.30
2023-01-29T06:53:37.548Z,0.32
2023-01-29T06:56:39.964Z,0.27
2023-01-29T06:59:42.964Z,0.30
2023-01-29T07:02:45.382Z,0.35
2023-01-29T07:05:52.989Z,0.35
2023-01-29T07:08:55.739Z,0.35
2023-01-29T07:11:58.504Z,0.41
2023-01-29T07:15:00.922Z,0.41
2023-01-29T07:18:05.503Z,0.43
2023-01-29T07:21:08.204Z,0.44
2023-01-29T07:24:11.042Z,0.43
2023-01-29T07:27:15.898Z,0.47
2023-01-29T07:30:19.001Z,0.49
2023-01-29T07:33:21.687Z,0.53
2023-01-29T07:36:24.628Z,0.55
2023-01-29T07:39:27.024Z,0.53
2023-01-29T07:42:29.769Z,0.53
2023-01-29T07:45:34.572Z,0.57
2023-01-29T07:48:37.335Z,0.61
2023-01-29T07:51:39.643Z,0.58
2023-01-29T07:54:42.332Z,0.63
2023-01-29T07:57:44.743Z,0.60
2023-01-29T08:00:47.476Z,0.62
2023-01-29T08:03:51.423Z,0.68
2023-01-29T08:06:53.873Z,0.63
2023-01-29T08:09:56.521Z,0.63
2023-01-29T08:13:01.178Z,0.70
2023-01-29T08:16:04.801Z,0.72
2023-01-29T08:19:07.211Z,0.72
2023-01-29T08:22:10.008Z,0.69
2023-01-29T08:25:13.690Z,0.71
2023-01-29T08:28:16.504Z,0.74
2023-01-29T08:31:23.275Z,0.73
2023-01-29T08:34:26.055Z,0.78
2023-01-29T08:37:28.484Z,0.76
2023-01-29T08:40:34.076Z,0.78
2023-01-29T08:43:39.909Z,0.85
2023-01-29T08:46:42.618Z,0.86
2023-01-29T08:49:45.092Z,0.89
2023-01-29T08:52:51.777Z,0.96
2023-01-29T08:55:54.253Z,0.91
2023-01-29T08:58:58.352Z,0.97
2023-01-29T09:02:01.635Z,0.98
2023-01-29T09:05:04.774Z,0.97
2023-01-29T09:08:08.296Z,1.03
2023-01-29T09:11:11.391Z,0.98
2023-01-29T09:14:14.780Z,1.03
2023-01-29T09:17:17.564Z,0.97
2023-01-29T09:20:20.326Z,1.03
2023-01-29T09:23:23.260Z,0.97
2023-01-29T09:26:25.718Z,0.99
2023-01-29T09:29:28.568Z,0.97
2023-01-29T09:33:04.895Z,0.97
2023-01-29T09:35:53.779Z,0.96
2023-01-29T09:38:56.183Z,0.98
2023-01-29T09:42:23.088Z,0.87
2023-01-29T09:45:29.757Z,0.91
2023-01-29T09:48:36.529Z,0.94
2023-01-29T09:51:43.501Z,0.91
2023-01-29T09:55:07.543Z,0.89
2023-01-29T09:58:28.264Z,0.91
2023-01-29T10:01:39.298Z,0.89
2023-01-29T10:05:13.287Z,0.81
2023-01-29T10:08:24.491Z,0.83
2023-01-29T10:11:27.063Z,0.77
2023-01-29T10:14:38.056Z,0.77
2023-01-29T10:17:50.557Z,0.82
2023-01-29T10:20:58.887Z,0.82
2023-01-29T10:24:34.780Z,0.74
2023-01-29T10:27:41.327Z,0.76
2023-01-29T10:30:54.908Z,0.88
2023-01-29T10:34:05.003Z,0.90
2023-01-29T10:37:40.977Z,0.94
2023-01-29T10:40:56.103Z,0.94
2023-01-29T10:44:21.002Z,0.95
2023-01-29T10:47:40.613Z,1.00
2023-01-29T10:51:01.187Z,1.04
2023-01-29T10:54:18.785Z,1.08
2023-01-29T10:57:53.402Z,1.07
2023-01-29T11:00:56.482Z,1.09
2023-01-29T11:04:13.076Z,1.10
2023-01-29T11:07:19.552Z,1.13
2023-01-29T11:10:24.007Z,1.12
2023-01-29T11:13:32.780Z,1.11
2023-01-29T11:16:44.438Z,1.07
2023-01-29T11:19:48.712Z,1.02
2023-01-29T11:22:55.779Z,0.98
2023-01-29T11:25:59.838Z,1.02
2023-01-29T11:29:02.488Z,1.04
2023-01-29T11:32:14.144Z,1.01
2023-01-29T11:35:16.811Z,1.05
2023-01-29T11:38:25.496Z,0.99
2023-01-29T11:41:28.319Z,1.01
2023-01-29T11:44:39.784Z,1.05
2023-01-29T11:47:50.517Z,1.11
2023-01-29T11:50:57.465Z,1.13
2023-01-29T11:54:04.356Z,1.13
2023-01-29T11:57:30.217Z,1.09
2023-01-29T12:00:36.006Z,1.10
2023-01-29T12:03:46.172Z,1.12
2023-01-29T12:06:52.707Z,1.11
2023-01-29T12:09:59.702Z,1.16
2023-01-29T12:13:11.080Z,1.12
2023-01-29T12:16:36.800Z,1.09
2023-01-29T12:19:46.401Z,1.08
2023-01-29T12:23:08.852Z,1.17
2023-01-29T12:26:16.162Z,1.34
2023-01-29T12:29:48.268Z,1.33
2023-01-29T12:33:01.222Z,1.22
2023-01-29T12:36:21.975Z,1.24
2023-01-29T12:39:24.456Z,1.39
2023-01-29T12:42:27.829Z,1.49
2023-01-29T12:45:32.995Z,1.58
2023-01-29T12:48:42.798Z,1.63
2023-01-29T12:52:15.575Z,1.46
2023-01-29T12:55:27.258Z,1.34
2023-01-29T12:58:38.127Z,1.27
2023-01-29T13:01:52.653Z,1.39
2023-01-29T13:05:21.148Z,1.38
2023-01-29T13:08:39.576Z,1.20
2023-01-29T13:11:51.349Z,1.28
2023-01-29T13:15:05.617Z,1.27
2023-01-29T13:18:35.900Z,1.12
2023-01-29T13:21:42.405Z,1.27
2023-01-29T13:24:55.465Z,1.29
2023-01-29T13:28:17.103Z,1.26
2023-01-29T13:31:35.612Z,1.19
2023-01-29T13:34:48.946Z,1.13
2023-01-29T13:37:54.912Z,1.14
2023-01-29T13:41:02.013Z,1.12
2023-01-29T13:44:20.706Z,1.05
2023-01-29T13:47:37.184Z,1.08
2023-01-29T13:50:43.001Z,1.01
2023-01-29T13:54:07.666Z,1.03
2023-01-29T13:57:56.682Z,0.86
2023-01-29T14:01:02.653Z,0.84
2023-01-29T14:04:28.319Z,0.73
2023-01-29T14:07:50.117Z,0.72
2023-01-29T14:11:17.746Z,0.72
2023-01-29T14:14:47.763Z,0.72
2023-01-29T14:18:02.419Z,0.71
2023-01-29T14:21:20.052Z,0.64
2023-01-29T14:24:29.675Z,0.56
2023-01-29T14:27:33.006Z,0.55
2023-01-29T14:30:41.256Z,0.52
2023-01-29T14:33:44.763Z,0.55
2023-01-29T14:36:55.302Z,0.59
2023-01-29T14:40:07.683Z,0.56
2023-01-29T14:43:20.111Z,0.59
2023-01-29T14:46:34.345Z,0.59
2023-01-29T14:49:54.749Z,0.56
2023-01-29T14:53:19.833Z,0.53
2023-01-29T14:56:40.936Z,0.53
2023-01-29T14:59:57.068Z,0.46
2023-01-29T15:03:02.581Z,0.46
2023-01-29T15:06:08.062Z,0.43
2023-01-29T15:09:16.518Z,0.34
2023-01-29T15:12:27.852Z,0.35
2023-01-29T15:15:54.492Z,0.28
2023-01-29T15:19:12.431Z,0.24
2023-01-29T15:22:22.377Z,0.23
2023-01-29T15:25:25.598Z,0.21
2023-01-29T15:28:34.437Z,0.22
2023-01-29T15:31:37.020Z,0.22
2023-01-29T15:34:43.890Z,0.18
2023-01-29T15:37:59.132Z,0.12
2023-01-29T15:41:04.673Z,0.11
2023-01-29T15:44:16.703Z,0.08
2023-01-29T15:47:22.743Z,0.06
2023-01-29T15:50:25.362Z,0.03
2023-01-29T15:53:44.419Z,0.05
2023-01-29T15:56:49.715Z,0.03
2023-01-29T15:59:56.260Z,0.07
2023-01-29T16:03:00.761Z,0.08
2023-01-29T16:06:03.949Z,0.06
2023-01-29T16:09:07.890Z,0.05
2023-01-29T16:12:13.133Z,0.03
2023-01-29T16:15:23.839Z,0.06
2023-01-29T16:18:36.543Z,0.00
2023-01-29T16:21:45.999Z,0.02
2023-01-29T16:24:53.292Z,0.00
2023-01-29T16:27:56.102Z,0.00
2023-01-29T16:31:03.887Z,-0.02
2023-01-29T16:34:29.300Z,-0.02
2023-01-29T16:37:35.809Z,0.00
2023-01-29T16:40:40.851Z,-0.03
2023-01-29T16:43:48.022Z,-0.02
2023-01-29T16:46:53.632Z,-0.03
2023-01-29T16:50:19.165Z,-0.07
2023-01-29T16:53:24.581Z,-0.06
2023-01-29T16:56:31.690Z,0.00
2023-01-29T16:59:38.127Z,-0.03
2023-01-29T17:02:40.859Z,-0.03
2023-01-29T17:05:43.766Z,-0.04
2023-01-29T17:08:46.786Z,-0.03
2023-01-29T17:11:56.085Z,-0.03
2023-01-29T17:15:05.148Z,0.02
2023-01-29T17:18:17.179Z,0.02
2023-01-29T17:21:19.901Z,0.05
2023-01-29T17:24:22.669Z,0.05
2023-01-29T17:27:26.537Z,0.09
2023-01-29T17:30:33.930Z,0.07
2023-01-29T17:33:41.232Z,0.06
2023-01-29T17:36:44.677Z,0.03
2023-01-29T17:39:50.645Z,0.02
2023-01-29T17:42:53.090Z,0.03
2023-01-29T17:45:55.847Z,0.05
2023-01-29T17:48:58.312Z,0.03
2023-01-29T17:52:00.981Z,-0.02
2023-01-29T17:55:03.472Z,-0.02
2023-01-29T17:58:09.181Z,-0.03
2023-01-29T18:01:11.616Z,-0.01
2023-01-29T18:04:14.927Z,-0.01
2023-01-29T18:07:17.373Z,0.10
2023-01-29T18:10:21.762Z,0.06
2023-01-29T18:13:24.601Z,0.07
2023-01-29T18:16:27.531Z,0.05
2023-01-29T18:19:31.766Z,0.04
2023-01-29T18:22:34.584Z,0.05
2023-01-29T18:25:37.824Z,0.08
2023-01-29T18:28:43.454Z,0.05
2023-01-29T18:31:48.465Z,0.06
2023-01-29T18:34:51.311Z,0.03
2023-01-29T18:37:53.787Z,0.05
2023-01-29T18:41:04.086Z,0.07
2023-01-29T18:44:06.654Z,0.05
2023-01-29T18:47:09.462Z,0.08
2023-01-29T18:50:12.286Z,0.06
2023-01-29T18:53:15.136Z,0.06
2023-01-29T18:56:17.763Z,0.08
2023-01-29T18:59:20.579Z,0.03
2023-01-29T19:02:23.374Z,-0.03
2023-01-29T19:05:26.253Z,-0.03
2023-01-29T19:08:31.569Z,-0.03
2023-01-29T19:11:34.356Z,-0.03
2023-01-29T19:14:36.859Z,-0.01
2023-01-29T19:17:39.557Z,-0.02
2023-01-29T19:20:42.380Z,-0.05
2023-01-29T19:23:45.064Z,-0.05
2023-01-29T19:26:47.562Z,-0.09
2023-01-29T19:29:51.058Z,-0.04
2023-01-29T19:32:54.796Z,-0.07
2023-01-29T19:35:58.573Z,-0.06
2023-01-29T19:39:00.956Z,-0.06
2023-01-29T19:42:05.898Z,-0.08
2023-01-29T19:45:08.958Z,-0.12
2023-01-29T19:48:11.793Z,-0.12
2023-01-29T19:51:14.699Z,-0.07
2023-01-29T19:54:17.498Z,-0.08
2023-01-29T19:57:19.995Z,-0.09
2023-01-29T20:00:22.816Z,-0.08
2023-01-29T20:03:26.791Z,-0.09
2023-01-29T20:06:32.812Z,-0.05
2023-01-29T20:09:35.541Z,-0.06
2023-01-29T20:12:38.318Z,-0.05
2023-01-29T20:15:46.051Z,-0.04
2023-01-29T20:18:48.831Z,-0.01
2023-01-29T20:21:51.728Z,-0.03
2023-01-29T20:24:54.438Z,0.00
2023-01-29T20:27:57.255Z,0.03
2023-01-29T20:31:00.067Z,0.04
2023-01-29T20:34:03.022Z,0.00
2023-01-29T20:37:07.413Z,-0.01
2023-01-29T20:40:11.222Z,0.00
2023-01-29T20:43:13.692Z,-0.06
2023-01-29T20:46:16.603Z,-0.13
2023-01-29T20:49:19.349Z,-0.09
2023-01-29T20:52:22.012Z,-0.11
2023-01-29T20:55:24.791Z,-0.16
2023-01-29T20:58:27.607Z,-0.20
2023-01-29T21:01:30.117Z,-0.20
2023-01-29T21:04:32.780Z,-0.18
2023-01-29T21:07:36.215Z,-0.20
2023-01-29T21:10:39.095Z,-0.24
2023-01-29T21:13:42.652Z,-0.19
2023-01-29T21:16:45.458Z,-0.18
2023-01-29T21:19:47.971Z,-0.20
2023-01-29T21:22:50.771Z,-0.20
2023-01-29T21:25:53.264Z,-0.19
2023-01-29T21:28:56.056Z,-0.22
2023-01-29T21:31:58.612Z,-0.21
2023-01-29T21:35:01.482Z,-0.22
2023-01-29T21:38:04.869Z,-0.22
2023-01-29T21:41:10.010Z,-0.20
2023-01-29T21:44:12.671Z,-0.24
2023-01-29T21:47:15.452Z,-0.23
2023-01-29T21:50:18.269Z,-0.23
2023-01-29T21:53:23.336Z,-0.22
2023-01-29T21:56:25.781Z,-0.23
2023-01-29T21:59:28.547Z,-0.22
2023-01-29T22:02:32.233Z,-0.23
2023-01-29T22:05:35.181Z,-0.22
2023-01-29T22:08:37.587Z,-0.25
2023-01-29T22:11:41.668Z,-0.24
2023-01-29T22:14:44.794Z,-0.28
2023-01-29T22:17:47.567Z,-0.25
2023-01-29T22:20:57.004Z,-0.25
2023-01-29T22:23:59.750Z,-0.26
2023-01-29T22:27:02.103Z,-0.19
2023-01-29T22:30:05.895Z,-0.22
2023-01-29T22:33:08.411Z,-0.20
2023-01-29T22:36:11.157Z,-0.27
2023-01-29T22:39:13.512Z,-0.25
2023-01-29T22:42:19.277Z,-0.22
2023-01-29T22:45:21.698Z,-0.23
2023-01-29T22:48:24.443Z,-0.20
2023-01-29T22:51:26.975Z,-0.30
2023-01-29T22:54:29.754Z,-0.31
2023-01-29T22:57:32.251Z,-0.28
2023-01-29T23:00:35.026Z,-0.31
2023-01-29T23:03:37.507Z,-0.33
2023-01-29T23:06:40.202Z,-0.30
2023-01-29T23:09:42.695Z,-0.33
2023-01-29T23:12:45.515Z,-0.33
2023-01-29T23:15:59.443Z,-0.35
2023-01-29T23:19:02.261Z,-0.38
2023-01-29T23:22:04.808Z,-0.32
2023-01-29T23:25:07.909Z,-0.35
2023-01-29T23:28:10.745Z,-0.39
2023-01-29T23:31:14.038Z,-0.39
2023-01-29T23:34:16.625Z,-0.41
2023-01-29T23:37:19.335Z,-0.44
2023-01-29T23:40:21.707Z,-0.41
2023-01-29T23:43:28.629Z,-0.44
2023-01-29T23:46:31.640Z,-0.45
2023-01-29T23:49:34.533Z,-0.45
2023-01-29T23:52:36.990Z,-0.50
2023-01-29T23:55:39.635Z,-0.50
2023-01-29T23:58:42.128Z,-0.51
